Аэропорт: Звартноц. Ереван

ICAO: UDYZ

METAR:
2018/07/22 20:00
UDYZ 222000Z 35001KT 9999 FEW040CB 21/16 Q1008 R09////070 NOSIG
METAR:
2018/07/22 18:00
TAF UDYZ 221713Z 2218/2318 02006KT 9999 FEW040 
      TEMPO 2218/2224 VRB16G26KT -TSRA BKN040CB